sensor_id;sensor_type;location;lat;lon;timestamp;pressure;altitude;pressure_sealevel;temperature;humidity
13952;BME280;39535;52.192;9.886;2023-03-14T00:02:09;98295.50;;;11.94;78.83
13952;BME280;39535;52.192;9.886;2023-03-14T00:04:36;98269.34;;;11.94;79.15
13952;BME280;39535;52.192;9.886;2023-03-14T00:07:02;98242.47;;;11.92;79.64
13952;BME280;39535;52.192;9.886;2023-03-14T00:09:29;98210.06;;;11.95;80.14
13952;BME280;39535;52.192;9.886;2023-03-14T00:11:57;98193.44;;;11.96;80.09
13952;BME280;39535;52.192;9.886;2023-03-14T00:14:24;98182.25;;;11.94;80.33
13952;BME280;39535;52.192;9.886;2023-03-14T00:16:50;98170.19;;;11.91;80.69
13952;BME280;39535;52.192;9.886;2023-03-14T00:19:16;98172.78;;;11.91;81.12
13952;BME280;39535;52.192;9.886;2023-03-14T00:21:43;98155.78;;;11.84;81.43
13952;BME280;39535;52.192;9.886;2023-03-14T00:24:09;98131.53;;;11.96;81.43
13952;BME280;39535;52.192;9.886;2023-03-14T00:26:35;98135.84;;;11.97;81.20
13952;BME280;39535;52.192;9.886;2023-03-14T00:29:03;98144.59;;;11.96;81.08
13952;BME280;39535;52.192;9.886;2023-03-14T00:31:29;98153.03;;;12.01;81.06
13952;BME280;39535;52.192;9.886;2023-03-14T00:33:56;98165.34;;;11.99;80.98
13952;BME280;39535;52.192;9.886;2023-03-14T00:36:23;98153.38;;;11.95;80.72
13952;BME280;39535;52.192;9.886;2023-03-14T00:38:50;98170.81;;;11.80;80.88
13952;BME280;39535;52.192;9.886;2023-03-14T00:41:19;98180.97;;;11.85;80.64
13952;BME280;39535;52.192;9.886;2023-03-14T00:43:47;98201.34;;;11.80;80.00
13952;BME280;39535;52.192;9.886;2023-03-14T00:46:15;98198.28;;;11.87;80.35
13952;BME280;39535;52.192;9.886;2023-03-14T00:48:41;98223.56;;;11.87;79.73
13952;BME280;39535;52.192;9.886;2023-03-14T00:51:08;98242.72;;;11.87;79.41
13952;BME280;39535;52.192;9.886;2023-03-14T00:53:37;98250.72;;;11.84;78.76
13952;BME280;39535;52.192;9.886;2023-03-14T00:56:05;98263.28;;;11.94;77.96
13952;BME280;39535;52.192;9.886;2023-03-14T00:58:32;98285.13;;;11.92;77.53
13952;BME280;39535;52.192;9.886;2023-03-14T01:00:59;98272.13;;;11.91;78.19
13952;BME280;39535;52.192;9.886;2023-03-14T01:03:26;98284.22;;;11.94;77.77
13952;BME280;39535;52.192;9.886;2023-03-14T01:05:52;98281.69;;;11.92;78.05
13952;BME280;39535;52.192;9.886;2023-03-14T01:08:19;98275.69;;;11.90;78.23
13952;BME280;39535;52.192;9.886;2023-03-14T01:10:45;98275.94;;;11.85;77.82
13952;BME280;39535;52.192;9.886;2023-03-14T01:13:11;98282.09;;;11.84;77.48
13952;BME280;39535;52.192;9.886;2023-03-14T01:15:38;98273.34;;;11.85;77.58
13952;BME280;39535;52.192;9.886;2023-03-14T01:18:04;98265.56;;;11.84;77.48
13952;BME280;39535;52.192;9.886;2023-03-14T01:20:32;98255.94;;;11.84;78.02
13952;BME280;39535;52.192;9.886;2023-03-14T01:22:58;98266.84;;;11.77;78.15
13952;BME280;39535;52.192;9.886;2023-03-14T01:25:25;98258.19;;;11.76;77.62
13952;BME280;39535;52.192;9.886;2023-03-14T01:27:51;98245.47;;;11.70;77.89
13952;BME280;39535;52.192;9.886;2023-03-14T01:30:18;98241.09;;;11.70;77.82
13952;BME280;39535;52.192;9.886;2023-03-14T01:32:45;98246.91;;;11.76;77.02
13952;BME280;39535;52.192;9.886;2023-03-14T01:35:11;98269.56;;;11.75;77.40
13952;BME280;39535;52.192;9.886;2023-03-14T01:37:39;98252.66;;;11.66;77.64
13952;BME280;39535;52.192;9.886;2023-03-14T01:40:06;98239.75;;;11.63;78.18
13952;BME280;39535;52.192;9.886;2023-03-14T01:42:32;98264.22;;;11.62;77.75
13952;BME280;39535;52.192;9.886;2023-03-14T01:45:00;98260.78;;;11.62;77.87
13952;BME280;39535;52.192;9.886;2023-03-14T01:47:27;98266.91;;;11.61;77.74
13952;BME280;39535;52.192;9.886;2023-03-14T01:49:56;98274.19;;;11.56;77.69
13952;BME280;39535;52.192;9.886;2023-03-14T01:52:27;98248.69;;;11.59;77.46
13952;BME280;39535;52.192;9.886;2023-03-14T01:55:02;98232.09;;;11.60;77.71
13952;BME280;39535;52.192;9.886;2023-03-14T01:57:32;98237.81;;;11.67;77.03
13952;BME280;39535;52.192;9.886;2023-03-14T02:00:03;98228.38;;;11.64;76.77
13952;BME280;39535;52.192;9.886;2023-03-14T02:02:34;98235.47;;;11.62;76.62
13952;BME280;39535;52.192;9.886;2023-03-14T02:05:00;98262.63;;;11.60;76.17
13952;BME280;39535;52.192;9.886;2023-03-14T02:07:33;98253.56;;;11.65;76.11
13952;BME280;39535;52.192;9.886;2023-03-14T02:10:03;98264.50;;;11.58;76.07
13952;BME280;39535;52.192;9.886;2023-03-14T02:12:31;98264.97;;;11.64;75.58
13952;BME280;39535;52.192;9.886;2023-03-14T02:14:58;98275.19;;;11.53;76.08
13952;BME280;39535;52.192;9.886;2023-03-14T02:17:25;98280.09;;;11.43;75.92
13952;BME280;39535;52.192;9.886;2023-03-14T02:20:03;98294.94;;;11.43;75.69
13952;BME280;39535;52.192;9.886;2023-03-14T02:22:34;98304.38;;;11.45;75.64
13952;BME280;39535;52.192;9.886;2023-03-14T02:25:08;98304.63;;;11.41;75.79
13952;BME280;39535;52.192;9.886;2023-03-14T02:27:38;98295.22;;;11.38;75.93
13952;BME280;39535;52.192;9.886;2023-03-14T02:30:07;98303.44;;;11.46;76.08
13952;BME280;39535;52.192;9.886;2023-03-14T02:32:37;98301.63;;;11.32;75.42
13952;BME280;39535;52.192;9.886;2023-03-14T02:35:07;98288.28;;;11.37;75.30
13952;BME280;39535;52.192;9.886;2023-03-14T02:37:38;98295.56;;;11.32;75.83
13952;BME280;39535;52.192;9.886;2023-03-14T02:40:08;98284.56;;;11.41;75.60
13952;BME280;39535;52.192;9.886;2023-03-14T02:42:34;98286.19;;;11.44;75.54
13952;BME280;39535;52.192;9.886;2023-03-14T02:45:33;98275.16;;;11.39;75.49
13952;BME280;39535;52.192;9.886;2023-03-14T02:48:02;98280.13;;;11.27;75.34
13952;BME280;39535;52.192;9.886;2023-03-14T02:50:32;98279.28;;;11.27;75.45
13952;BME280;39535;52.192;9.886;2023-03-14T02:52:59;98279.22;;;11.28;75.36
13952;BME280;39535;52.192;9.886;2023-03-14T02:55:26;98268.84;;;11.27;75.66
13952;BME280;39535;52.192;9.886;2023-03-14T02:57:52;98269.19;;;11.21;75.11
13952;BME280;39535;52.192;9.886;2023-03-14T03:00:20;98280.88;;;11.29;74.63
13952;BME280;39535;52.192;9.886;2023-03-14T03:02:47;98277.53;;;11.27;74.97
13952;BME280;39535;52.192;9.886;2023-03-14T03:05:13;98275.22;;;11.37;75.34
13952;BME280;39535;52.192;9.886;2023-03-14T03:07:40;98292.00;;;11.33;74.59
13952;BME280;39535;52.192;9.886;2023-03-14T03:10:07;98311.81;;;11.37;74.01
13952;BME280;39535;52.192;9.886;2023-03-14T03:12:33;98310.63;;;11.43;74.19
13952;BME280;39535;52.192;9.886;2023-03-14T03:15:00;98313.41;;;11.40;73.74
13952;BME280;39535;52.192;9.886;2023-03-14T03:17:27;98301.75;;;11.45;73.75
13952;BME280;39535;52.192;9.886;2023-03-14T03:19:54;98312.19;;;11.45;73.78
13952;BME280;39535;52.192;9.886;2023-03-14T03:22:20;98303.53;;;11.45;73.77
13952;BME280;39535;52.192;9.886;2023-03-14T03:24:46;98315.09;;;11.41;73.33
13952;BME280;39535;52.192;9.886;2023-03-14T03:27:12;98324.94;;;11.36;73.59
13952;BME280;39535;52.192;9.886;2023-03-14T03:29:39;98290.00;;;11.38;75.26
13952;BME280;39535;52.192;9.886;2023-03-14T03:32:05;98260.59;;;11.35;75.61
13952;BME280;39535;52.192;9.886;2023-03-14T03:34:33;98246.84;;;11.31;75.29
13952;BME280;39535;52.192;9.886;2023-03-14T03:37:00;98226.63;;;11.35;76.15
13952;BME280;39535;52.192;9.886;2023-03-14T03:39:26;98209.19;;;11.35;75.88
13952;BME280;39535;52.192;9.886;2023-03-14T03:41:52;98223.53;;;11.28;75.85
13952;BME280;39535;52.192;9.886;2023-03-14T03:44:19;98213.28;;;11.09;75.70
13952;BME280;39535;52.192;9.886;2023-03-14T03:46:45;98200.91;;;11.12;76.98
13952;BME280;39535;52.192;9.886;2023-03-14T03:49:11;98186.00;;;11.15;76.73
13952;BME280;39535;52.192;9.886;2023-03-14T03:51:40;98187.66;;;11.16;76.57
13952;BME280;39535;52.192;9.886;2023-03-14T03:54:06;98203.31;;;11.16;76.97
13952;BME280;39535;52.192;9.886;2023-03-14T03:56:33;98163.75;;;11.07;78.94
13952;BME280;39535;52.192;9.886;2023-03-14T03:58:59;98113.34;;;11.07;81.14
13952;BME280;39535;52.192;9.886;2023-03-14T04:01:25;98068.56;;;10.99;81.48
13952;BME280;39535;52.192;9.886;2023-03-14T04:03:52;98037.25;;;10.99;83.80
13952;BME280;39535;52.192;9.886;2023-03-14T04:06:18;98007.13;;;10.93;83.74
13952;BME280;39535;52.192;9.886;2023-03-14T04:08:46;98007.84;;;10.66;83.73
13952;BME280;39535;52.192;9.886;2023-03-14T04:11:12;97986.53;;;10.28;84.18
13952;BME280;39535;52.192;9.886;2023-03-14T04:13:39;97949.13;;;10.29;85.49
13952;BME280;39535;52.192;9.886;2023-03-14T04:16:11;97923.16;;;10.11;86.05
13952;BME280;39535;52.192;9.886;2023-03-14T04:18:40;97888.03;;;10.03;86.89
13952;BME280;39535;52.192;9.886;2023-03-14T04:21:06;97871.88;;;10.12;87.76
13952;BME280;39535;52.192;9.886;2023-03-14T04:23:32;97874.91;;;10.04;86.91
13952;BME280;39535;52.192;9.886;2023-03-14T04:26:00;97894.00;;;10.05;85.90
13952;BME280;39535;52.192;9.886;2023-03-14T04:28:27;97903.88;;;10.00;85.22
13952;BME280;39535;52.192;9.886;2023-03-14T04:30:53;97915.00;;;9.87;84.65
13952;BME280;39535;52.192;9.886;2023-03-14T04:33:19;97921.78;;;9.90;85.43
13952;BME280;39535;52.192;9.886;2023-03-14T04:35:46;97926.19;;;9.73;85.07
13952;BME280;39535;52.192;9.886;2023-03-14T04:38:13;97950.28;;;9.61;83.75
13952;BME280;39535;52.192;9.886;2023-03-14T04:40:40;97953.34;;;9.69;83.74
13952;BME280;39535;52.192;9.886;2023-03-14T04:43:10;97957.03;;;9.81;84.65
13952;BME280;39535;52.192;9.886;2023-03-14T04:45:36;97954.44;;;9.81;83.88
13952;BME280;39535;52.192;9.886;2023-03-14T04:48:03;97991.88;;;9.63;83.01
13952;BME280;39535;52.192;9.886;2023-03-14T04:50:29;97976.53;;;9.58;84.07
13952;BME280;39535;52.192;9.886;2023-03-14T04:52:56;97967.75;;;9.59;83.97
13952;BME280;39535;52.192;9.886;2023-03-14T04:55:22;97962.81;;;9.70;84.47
13952;BME280;39535;52.192;9.886;2023-03-14T04:57:48;97959.03;;;9.76;84.39
13952;BME280;39535;52.192;9.886;2023-03-14T05:00:16;97962.47;;;9.77;84.29
13952;BME280;39535;52.192;9.886;2023-03-14T05:02:44;97959.38;;;9.86;84.47
13952;BME280;39535;52.192;9.886;2023-03-14T05:05:10;97972.06;;;9.76;84.15
13952;BME280;39535;52.192;9.886;2023-03-14T05:07:36;97961.97;;;9.86;85.08
13952;BME280;39535;52.192;9.886;2023-03-14T05:10:03;97948.69;;;9.90;85.00
13952;BME280;39535;52.192;9.886;2023-03-14T05:12:30;97937.81;;;9.98;85.39
13952;BME280;39535;52.192;9.886;2023-03-14T05:14:56;97939.50;;;9.99;84.74
13952;BME280;39535;52.192;9.886;2023-03-14T05:17:24;97943.50;;;10.05;84.49
13952;BME280;39535;52.192;9.886;2023-03-14T05:19:50;97946.31;;;10.02;84.94
13952;BME280;39535;52.192;9.886;2023-03-14T05:22:16;97942.59;;;10.06;84.63
13952;BME280;39535;52.192;9.886;2023-03-14T05:24:43;97940.78;;;9.92;84.24
13952;BME280;39535;52.192;9.886;2023-03-14T05:27:09;97967.53;;;9.80;84.00
13952;BME280;39535;52.192;9.886;2023-03-14T05:29:35;97951.47;;;9.87;84.58
13952;BME280;39535;52.192;9.886;2023-03-14T05:32:02;97954.44;;;9.81;84.30
13952;BME280;39535;52.192;9.886;2023-03-14T05:34:29;97942.97;;;9.84;84.22
13952;BME280;39535;52.192;9.886;2023-03-14T05:36:56;97951.34;;;9.89;84.03
13952;BME280;39535;52.192;9.886;2023-03-14T05:39:22;97975.25;;;9.81;83.40
13952;BME280;39535;52.192;9.886;2023-03-14T05:41:48;97967.09;;;9.87;83.68
13952;BME280;39535;52.192;9.886;2023-03-14T05:44:15;97968.28;;;9.82;83.58
13952;BME280;39535;52.192;9.886;2023-03-14T05:46:41;97957.78;;;9.67;84.15
13952;BME280;39535;52.192;9.886;2023-03-14T05:49:08;97957.19;;;9.78;84.32
13952;BME280;39535;52.192;9.886;2023-03-14T05:51:35;97942.66;;;9.74;84.56
13952;BME280;39535;52.192;9.886;2023-03-14T05:54:02;97941.06;;;9.71;84.86
13952;BME280;39535;52.192;9.886;2023-03-14T05:56:28;97932.72;;;9.81;84.95
13952;BME280;39535;52.192;9.886;2023-03-14T05:58:54;97927.91;;;9.89;84.80
13952;BME280;39535;52.192;9.886;2023-03-14T06:01:21;97935.72;;;9.89;84.55
13952;BME280;39535;52.192;9.886;2023-03-14T06:03:47;97929.56;;;9.76;84.61
13952;BME280;39535;52.192;9.886;2023-03-14T06:06:13;97924.91;;;9.81;84.71
13952;BME280;39535;52.192;9.886;2023-03-14T06:08:43;97923.47;;;9.75;84.90
13952;BME280;39535;52.192;9.886;2023-03-14T06:11:09;97933.81;;;9.77;84.78
13952;BME280;39535;52.192;9.886;2023-03-14T06:13:35;97936.44;;;9.77;84.61
13952;BME280;39535;52.192;9.886;2023-03-14T06:16:02;97946.00;;;9.76;84.38
13952;BME280;39535;52.192;9.886;2023-03-14T06:18:28;97938.81;;;9.65;84.60
13952;BME280;39535;52.192;9.886;2023-03-14T06:20:55;97933.66;;;9.80;84.81
13952;BME280;39535;52.192;9.886;2023-03-14T06:23:21;97942.81;;;9.71;84.62
13952;BME280;39535;52.192;9.886;2023-03-14T06:25:49;97945.94;;;9.78;84.71
13952;BME280;39535;52.192;9.886;2023-03-14T06:28:15;97945.75;;;9.81;84.64
13952;BME280;39535;52.192;9.886;2023-03-14T06:30:42;97948.28;;;9.82;84.12
13952;BME280;39535;52.192;9.886;2023-03-14T06:33:08;97949.44;;;9.77;84.51
13952;BME280;39535;52.192;9.886;2023-03-14T06:35:34;97948.69;;;9.90;84.12
13952;BME280;39535;52.192;9.886;2023-03-14T06:38:01;97974.31;;;9.98;83.95
13952;BME280;39535;52.192;9.886;2023-03-14T06:40:27;97976.34;;;9.93;84.81
13952;BME280;39535;52.192;9.886;2023-03-14T06:42:55;97954.41;;;9.97;84.60
13952;BME280;39535;52.192;9.886;2023-03-14T06:45:21;97964.91;;;9.96;84.51
13952;BME280;39535;52.192;9.886;2023-03-14T06:47:48;97971.38;;;9.88;84.65
13952;BME280;39535;52.192;9.886;2023-03-14T06:50:14;97947.97;;;10.03;85.22
13952;BME280;39535;52.192;9.886;2023-03-14T06:52:40;97926.59;;;10.12;85.93
13952;BME280;39535;52.192;9.886;2023-03-14T06:55:11;97922.16;;;10.14;86.34
13952;BME280;39535;52.192;9.886;2023-03-14T06:57:37;97919.63;;;10.12;86.41
13952;BME280;39535;52.192;9.886;2023-03-14T07:00:06;97903.22;;;10.10;87.45
13952;BME280;39535;52.192;9.886;2023-03-14T07:02:33;97904.53;;;10.03;87.10
13952;BME280;39535;52.192;9.886;2023-03-14T07:05:00;97890.41;;;10.07;87.60
13952;BME280;39535;52.192;9.886;2023-03-14T07:07:26;97888.63;;;10.08;87.99
13952;BME280;39535;52.192;9.886;2023-03-14T07:09:53;97871.31;;;10.07;88.49
13952;BME280;39535;52.192;9.886;2023-03-14T07:12:19;97871.03;;;10.11;88.79
13952;BME280;39535;52.192;9.886;2023-03-14T07:14:45;97867.41;;;10.14;88.79
13952;BME280;39535;52.192;9.886;2023-03-14T07:17:13;97863.16;;;10.27;88.97
13952;BME280;39535;52.192;9.886;2023-03-14T07:19:39;97849.94;;;10.30;88.80
13952;BME280;39535;52.192;9.886;2023-03-14T07:22:06;97863.69;;;10.18;89.17
13952;BME280;39535;52.192;9.886;2023-03-14T07:24:32;97854.38;;;10.28;89.26
13952;BME280;39535;52.192;9.886;2023-03-14T07:26:58;97836.13;;;10.14;90.24
13952;BME280;39535;52.192;9.886;2023-03-14T07:29:25;97814.59;;;10.10;91.59
13952;BME280;39535;52.192;9.886;2023-03-14T07:31:51;97787.06;;;10.21;91.43
13952;BME280;39535;52.192;9.886;2023-03-14T07:34:19;97783.72;;;10.19;92.45
13952;BME280;39535;52.192;9.886;2023-03-14T07:36:45;97776.38;;;10.25;92.03
13952;BME280;39535;52.192;9.886;2023-03-14T07:39:11;97767.38;;;10.31;92.09
13952;BME280;39535;52.192;9.886;2023-03-14T07:41:38;97780.13;;;10.36;91.87
13952;BME280;39535;52.192;9.886;2023-03-14T07:44:04;97772.13;;;10.39;92.25
13952;BME280;39535;52.192;9.886;2023-03-14T07:46:30;97766.91;;;10.39;92.55
13952;BME280;39535;52.192;9.886;2023-03-14T07:48:57;97762.16;;;10.45;92.50
13952;BME280;39535;52.192;9.886;2023-03-14T07:51:24;97754.56;;;10.26;93.19
13952;BME280;39535;52.192;9.886;2023-03-14T07:53:51;97733.09;;;10.37;93.55
13952;BME280;39535;52.192;9.886;2023-03-14T07:56:17;97740.94;;;10.37;92.88
13952;BME280;39535;52.192;9.886;2023-03-14T07:58:43;97752.19;;;10.38;92.50
13952;BME280;39535;52.192;9.886;2023-03-14T08:01:10;97765.47;;;10.19;91.30
13952;BME280;39535;52.192;9.886;2023-03-14T08:03:36;97775.81;;;10.20;91.14
13952;BME280;39535;52.192;9.886;2023-03-14T08:06:03;97799.47;;;10.17;90.65
13952;BME280;39535;52.192;9.886;2023-03-14T08:08:30;97792.69;;;10.29;90.44
13952;BME280;39535;52.192;9.886;2023-03-14T08:11:02;97811.50;;;10.34;89.98
13952;BME280;39535;52.192;9.886;2023-03-14T08:13:29;97819.53;;;10.45;89.99
13952;BME280;39535;52.192;9.886;2023-03-14T08:15:55;97846.91;;;10.52;89.03
13952;BME280;39535;52.192;9.886;2023-03-14T08:18:22;97857.25;;;10.68;88.66
13952;BME280;39535;52.192;9.886;2023-03-14T08:20:49;97876.16;;;10.72;88.04
13952;BME280;39535;52.192;9.886;2023-03-14T08:23:15;97881.84;;;10.79;87.93
13952;BME280;39535;52.192;9.886;2023-03-14T08:25:43;97909.34;;;10.84;87.33
13952;BME280;39535;52.192;9.886;2023-03-14T08:28:09;97937.09;;;10.71;86.85
13952;BME280;39535;52.192;9.886;2023-03-14T08:30:35;97941.78;;;10.80;86.74
13952;BME280;39535;52.192;9.886;2023-03-14T08:33:02;97952.38;;;10.63;88.19
13952;BME280;39535;52.192;9.886;2023-03-14T08:35:31;97895.53;;;10.53;91.34
13952;BME280;39535;52.192;9.886;2023-03-14T08:37:57;97828.25;;;10.44;93.01
13952;BME280;39535;52.192;9.886;2023-03-14T08:40:24;97802.19;;;10.44;93.99
13952;BME280;39535;52.192;9.886;2023-03-14T08:42:52;97781.81;;;10.51;94.31
13952;BME280;39535;52.192;9.886;2023-03-14T08:45:18;97748.56;;;10.55;95.64
13952;BME280;39535;52.192;9.886;2023-03-14T08:47:45;97727.03;;;10.51;96.39
13952;BME280;39535;52.192;9.886;2023-03-14T08:50:15;97696.56;;;10.51;97.13
13952;BME280;39535;52.192;9.886;2023-03-14T08:52:42;97691.91;;;10.42;97.63
13952;BME280;39535;52.192;9.886;2023-03-14T08:55:09;97684.25;;;10.53;97.90
13952;BME280;39535;52.192;9.886;2023-03-14T08:57:39;97700.75;;;10.54;97.21
13952;BME280;39535;52.192;9.886;2023-03-14T09:00:08;97715.16;;;10.60;96.58
13952;BME280;39535;52.192;9.886;2023-03-14T09:02:40;97726.25;;;10.63;95.83
13952;BME280;39535;52.192;9.886;2023-03-14T09:05:07;97746.69;;;10.84;95.45
13952;BME280;39535;52.192;9.886;2023-03-14T09:07:34;97763.44;;;10.94;94.89
13952;BME280;39535;52.192;9.886;2023-03-14T09:10:01;97777.78;;;11.01;93.32
13952;BME280;39535;52.192;9.886;2023-03-14T09:12:30;97821.91;;;10.91;91.94
13952;BME280;39535;52.192;9.886;2023-03-14T09:14:56;97839.50;;;11.02;91.69
13952;BME280;39535;52.192;9.886;2023-03-14T09:17:24;97871.66;;;11.03;90.68
13952;BME280;39535;52.192;9.886;2023-03-14T09:19:50;97886.88;;;10.82;90.46
13952;BME280;39535;52.192;9.886;2023-03-14T09:22:17;97878.56;;;11.04;90.86
13952;BME280;39535;52.192;9.886;2023-03-14T09:24:43;97902.53;;;10.96;89.62
13952;BME280;39535;52.192;9.886;2023-03-14T09:27:09;97898.78;;;11.15;89.60
13952;BME280;39535;52.192;9.886;2023-03-14T09:29:36;97936.38;;;11.12;87.49
13952;BME280;39535;52.192;9.886;2023-03-14T09:32:02;97944.56;;;11.20;87.70
13952;BME280;39535;52.192;9.886;2023-03-14T09:34:30;97957.91;;;11.30;88.01
13952;BME280;39535;52.192;9.886;2023-03-14T09:36:57;97973.56;;;11.30;87.81
13952;BME280;39535;52.192;9.886;2023-03-14T09:39:23;97965.53;;;11.33;87.41
13952;BME280;39535;52.192;9.886;2023-03-14T09:41:51;97962.44;;;11.41;88.10
13952;BME280;39535;52.192;9.886;2023-03-14T09:44:21;97971.69;;;11.46;86.87
13952;BME280;39535;52.192;9.886;2023-03-14T09:46:53;97982.09;;;11.61;86.13
13952;BME280;39535;52.192;9.886;2023-03-14T09:49:21;98008.84;;;11.79;85.88
13952;BME280;39535;52.192;9.886;2023-03-14T09:51:53;98007.72;;;11.83;85.80
13952;BME280;39535;52.192;9.886;2023-03-14T09:54:30;98042.00;;;11.78;83.84
13952;BME280;39535;52.192;9.886;2023-03-14T09:56:57;98058.22;;;11.69;84.85
13952;BME280;39535;52.192;9.886;2023-03-14T09:59:24;98051.63;;;11.49;85.38
13952;BME280;39535;52.192;9.886;2023-03-14T10:01:52;98034.94;;;11.66;86.04
13952;BME280;39535;52.192;9.886;2023-03-14T10:04:22;98015.88;;;11.64;86.71
13952;BME280;39535;52.192;9.886;2023-03-14T10:06:50;98016.81;;;11.63;87.21
13952;BME280;39535;52.192;9.886;2023-03-14T10:09:20;97998.44;;;11.64;87.22
13952;BME280;39535;52.192;9.886;2023-03-14T10:11:51;97986.66;;;11.71;87.53
13952;BME280;39535;52.192;9.886;2023-03-14T10:14:29;98009.16;;;11.74;85.74
13952;BME280;39535;52.192;9.886;2023-03-14T10:17:04;98015.94;;;11.91;86.02
13952;BME280;39535;52.192;9.886;2023-03-14T10:19:31;98017.31;;;12.11;85.46
13952;BME280;39535;52.192;9.886;2023-03-14T10:22:01;98069.09;;;11.91;82.75
13952;BME280;39535;52.192;9.886;2023-03-14T10:24:29;98042.03;;;12.20;85.32
13952;BME280;39535;52.192;9.886;2023-03-14T10:26:58;98020.78;;;12.24;85.87
13952;BME280;39535;52.192;9.886;2023-03-14T10:29:27;98053.91;;;12.11;84.64
13952;BME280;39535;52.192;9.886;2023-03-14T10:31:55;98062.69;;;12.10;84.09
13952;BME280;39535;52.192;9.886;2023-03-14T10:34:25;98093.41;;;12.06;83.21
13952;BME280;39535;52.192;9.886;2023-03-14T10:36:53;98104.72;;;11.92;83.52
13952;BME280;39535;52.192;9.886;2023-03-14T10:39:32;98073.38;;;11.92;84.60
13952;BME280;39535;52.192;9.886;2023-03-14T10:42:10;98073.72;;;11.86;83.73
13952;BME280;39535;52.192;9.886;2023-03-14T10:44:38;98055.06;;;11.92;85.63
13952;BME280;39535;52.192;9.886;2023-03-14T10:47:05;98048.63;;;11.98;84.43
13952;BME280;39535;52.192;9.886;2023-03-14T10:49:33;98065.22;;;12.11;84.12
13952;BME280;39535;52.192;9.886;2023-03-14T10:52:14;98089.63;;;12.25;82.44
13952;BME280;39535;52.192;9.886;2023-03-14T10:54:46;98099.41;;;12.36;82.76
13952;BME280;39535;52.192;9.886;2023-03-14T10:57:13;98112.91;;;12.29;80.81
13952;BME280;39535;52.192;9.886;2023-03-14T10:59:41;98141.28;;;12.36;81.04
13952;BME280;39535;52.192;9.886;2023-03-14T11:02:26;98146.22;;;12.40;81.39
13952;BME280;39535;52.192;9.886;2023-03-14T11:05:04;98187.06;;;11.85;80.27
13952;BME280;39535;52.192;9.886;2023-03-14T11:07:38;98146.75;;;12.04;82.60
13952;BME280;39535;52.192;9.886;2023-03-14T11:10:14;98152.91;;;12.03;81.96
13952;BME280;39535;52.192;9.886;2023-03-14T11:12:51;98135.69;;;12.27;82.78
13952;BME280;39535;52.192;9.886;2023-03-14T11:15:25;98117.69;;;12.50;82.56
13952;BME280;39535;52.192;9.886;2023-03-14T11:18:12;98112.03;;;12.70;81.66
13952;BME280;39535;52.192;9.886;2023-03-14T11:20:44;98144.69;;;12.78;80.37
13952;BME280;39535;52.192;9.886;2023-03-14T11:23:18;98163.41;;;12.99;80.41
13952;BME280;39535;52.192;9.886;2023-03-14T11:25:54;98183.88;;;13.19;79.24
13952;BME280;39535;52.192;9.886;2023-03-14T11:28:27;98216.31;;;13.04;78.01
13952;BME280;39535;52.192;9.886;2023-03-14T11:31:02;98215.69;;;13.00;79.53
13952;BME280;39535;52.192;9.886;2023-03-14T11:33:35;98197.56;;;13.10;80.14
13952;BME280;39535;52.192;9.886;2023-03-14T11:36:06;98169.53;;;13.25;80.67
13952;BME280;39535;52.192;9.886;2023-03-14T11:38:37;98173.50;;;13.05;80.42
13952;BME280;39535;52.192;9.886;2023-03-14T11:41:11;98164.59;;;13.07;81.94
13952;BME280;39535;52.192;9.886;2023-03-14T11:43:40;98208.44;;;12.91;81.39
13952;BME280;39535;52.192;9.886;2023-03-14T11:46:10;98272.28;;;12.47;81.49
13952;BME280;39535;52.192;9.886;2023-03-14T11:48:42;98326.97;;;10.33;82.65
13952;BME280;39535;52.192;9.886;2023-03-14T11:51:15;98210.03;;;8.88;89.74
13952;BME280;39535;52.192;9.886;2023-03-14T11:53:55;98061.16;;;8.29;93.96
13952;BME280;39535;52.192;9.886;2023-03-14T11:56:31;97977.44;;;7.49;97.22
13952;BME280;39535;52.192;9.886;2023-03-14T11:59:01;97923.16;;;7.26;97.79
13952;BME280;39535;52.192;9.886;2023-03-14T12:01:36;97869.16;;;7.15;99.65
13952;BME280;39535;52.192;9.886;2023-03-14T12:04:13;97873.66;;;6.92;99.92
13952;BME280;39535;52.192;9.886;2023-03-14T12:06:46;97849.41;;;6.74;100.00
13952;BME280;39535;52.192;9.886;2023-03-14T12:09:15;97857.13;;;6.76;100.00
13952;BME280;39535;52.192;9.886;2023-03-14T12:11:47;97851.28;;;6.31;100.00
13952;BME280;39535;52.192;9.886;2023-03-14T12:14:19;97840.16;;;6.29;100.00
13952;BME280;39535;52.192;9.886;2023-03-14T12:16:46;97842.69;;;6.31;100.00
13952;BME280;39535;52.192;9.886;2023-03-14T12:19:35;97855.47;;;6.15;100.00
13952;BME280;39535;52.192;9.886;2023-03-14T12:22:08;97864.66;;;6.02;100.00
13952;BME280;39535;52.192;9.886;2023-03-14T12:24:45;97888.22;;;5.73;100.00
13952;BME280;39535;52.192;9.886;2023-03-14T12:30:25;97995.50;;;5.19;100.00
13952;BME280;39535;52.192;9.886;2023-03-14T12:33:20;98041.13;;;4.96;100.00
13952;BME280;39535;52.192;9.886;2023-03-14T12:35:53;98061.97;;;4.67;100.00
13952;BME280;39535;52.192;9.886;2023-03-14T12:38:28;98068.84;;;4.68;100.00
13952;BME280;39535;52.192;9.886;2023-03-14T12:40:59;98098.09;;;4.68;100.00
13952;BME280;39535;52.192;9.886;2023-03-14T12:43:30;98120.84;;;4.57;100.00
13952;BME280;39535;52.192;9.886;2023-03-14T12:46:08;98163.56;;;4.41;100.00
13952;BME280;39535;52.192;9.886;2023-03-14T12:48:37;98146.13;;;4.19;100.00
13952;BME280;39535;52.192;9.886;2023-03-14T12:51:12;98129.56;;;4.26;100.00
13952;BME280;39535;52.192;9.886;2023-03-14T12:53:58;98159.72;;;4.54;100.00
13952;BME280;39535;52.192;9.886;2023-03-14T12:56:53;98191.28;;;4.34;100.00
13952;BME280;39535;52.192;9.886;2023-03-14T12:59:32;98199.78;;;4.37;100.00
13952;BME280;39535;52.192;9.886;2023-03-14T13:02:01;98209.88;;;4.17;100.00
13952;BME280;39535;52.192;9.886;2023-03-14T13:04:32;98199.44;;;4.20;100.00
13952;BME280;39535;52.192;9.886;2023-03-14T13:07:00;98195.06;;;4.22;100.00
13952;BME280;39535;52.192;9.886;2023-03-14T13:09:51;98210.53;;;4.24;100.00
13952;BME280;39535;52.192;9.886;2023-03-14T13:12:23;98233.56;;;4.31;100.00
13952;BME280;39535;52.192;9.886;2023-03-14T13:14:59;98261.25;;;4.26;100.00